Time;durP1;ratioP1;P1;durP2;ratioP2;P2;SDS_P1;SDS_P2;PMS_P1;PMS_P2;Temp;Humidity;BMP_temperature;BMP_pressure;BME280_temperature;BME280_humidity;BME280_pressure;Samples;Min_cycle;Max_cycle;Signal;HPM_P1;HPM_P2
2022/07/07 00:00:01;;;;;;;5.27;3.30;;;14.80;99.90;;;;;;5069319;28;21108;-65
2022/07/07 00:02:33;;;;;;;7.20;2.90;;;14.80;99.90;;;;;;5069502;28;20852;-66
2022/07/07 00:05:00;;;;;;;12.43;5.33;;;14.90;99.90;;;;;;5069932;28;20449;-65
2022/07/07 00:07:27;;;;;;;4.07;3.00;;;14.90;99.90;;;;;;5069930;28;20822;-67
2022/07/07 00:09:54;;;;;;;4.10;2.80;;;14.90;99.90;;;;;;5069515;28;20451;-66
2022/07/07 00:12:21;;;;;;;5.27;2.73;;;14.90;99.90;;;;;;5069525;28;20451;-66
2022/07/07 00:14:48;;;;;;;3.60;2.90;;;15.00;99.90;;;;;;5069355;28;20455;-65
2022/07/07 00:17:16;;;;;;;4.50;3.10;;;15.00;99.90;;;;;;5069678;28;20487;-65
2022/07/07 00:19:44;;;;;;;5.90;3.40;;;14.90;99.90;;;;;;5069357;28;20971;-66
2022/07/07 00:22:11;;;;;;;4.93;3.27;;;15.00;99.90;;;;;;5069387;28;20458;-65
2022/07/07 00:24:38;;;;;;;6.07;3.70;;;15.00;99.90;;;;;;5069473;28;20447;-65
2022/07/07 00:27:05;;;;;;;5.80;3.30;;;15.00;99.90;;;;;;5069545;28;20542;-65
2022/07/07 00:29:32;;;;;;;4.83;4.13;;;14.90;99.90;;;;;;5073129;28;20949;-65
2022/07/07 00:32:02;;;;;;;4.13;3.00;;;14.90;99.90;;;;;;5073277;28;20447;-64
2022/07/07 00:34:29;;;;;;;5.30;3.33;;;14.90;99.90;;;;;;5073433;28;20879;-65
2022/07/07 00:36:57;;;;;;;3.87;3.47;;;14.90;99.90;;;;;;5073179;28;20891;-65
2022/07/07 00:39:27;;;;;;;5.23;3.17;;;14.90;99.90;;;;;;5073140;28;20455;-65
2022/07/07 00:41:54;;;;;;;3.30;2.97;;;15.00;99.90;;;;;;5072911;28;20832;-65
2022/07/07 00:44:22;;;;;;;9.57;3.60;;;15.00;99.90;;;;;;5073172;28;20834;-64
2022/07/07 00:46:53;;;;;;;4.67;3.47;;;15.00;99.90;;;;;;5073282;28;20536;-65
2022/07/07 00:49:21;;;;;;;4.20;3.40;;;15.00;99.90;;;;;;5073274;28;20488;-65
2022/07/07 00:51:48;;;;;;;4.40;3.23;;;14.90;99.90;;;;;;5072784;28;20529;-65
2022/07/07 00:54:16;;;;;;;4.17;3.20;;;14.90;99.90;;;;;;5072758;28;20847;-65
2022/07/07 00:56:43;;;;;;;4.27;3.40;;;15.00;99.90;;;;;;5072698;28;20478;-65
2022/07/07 00:59:10;;;;;;;6.37;3.13;;;15.00;99.90;;;;;;5072843;28;20953;-65
2022/07/07 01:01:39;;;;;;;6.27;4.20;;;15.00;99.90;;;;;;5072501;28;20482;-65
2022/07/07 01:04:07;;;;;;;7.37;3.73;;;15.10;99.90;;;;;;5072682;28;20459;-65
2022/07/07 01:06:34;;;;;;;3.73;3.10;;;15.20;99.90;;;;;;5072757;28;20447;-65
2022/07/07 01:09:02;;;;;;;5.73;3.10;;;15.30;99.90;;;;;;5072628;28;20468;-65
2022/07/07 01:11:45;;;;;;;3.10;2.73;;;15.30;99.90;;;;;;5072342;28;21191;-65
2022/07/07 01:14:13;;;;;;;7.10;3.50;;;15.30;99.90;;;;;;5072889;28;20466;-65
2022/07/07 01:16:40;;;;;;;3.43;3.03;;;15.30;99.90;;;;;;5072709;28;20532;-65
2022/07/07 01:19:06;;;;;;;4.13;2.63;;;15.30;99.90;;;;;;5072914;28;20449;-65
2022/07/07 01:21:40;;;;;;;5.80;3.03;;;15.30;99.90;;;;;;5072333;28;20451;-65
2022/07/07 01:24:08;;;;;;;4.13;3.70;;;15.30;99.90;;;;;;5072801;28;20557;-65
2022/07/07 01:26:35;;;;;;;7.70;3.70;;;15.30;99.90;;;;;;5072737;28;20439;-65
2022/07/07 01:29:01;;;;;;;4.27;3.17;;;15.20;99.90;;;;;;5072587;28;20454;-66
2022/07/07 01:31:28;;;;;;;4.13;3.17;;;15.10;99.90;;;;;;5072140;28;20443;-65
2022/07/07 01:33:55;;;;;;;3.53;2.60;;;15.20;99.90;;;;;;5072337;28;20471;-65
2022/07/07 01:36:22;;;;;;;4.30;2.80;;;15.20;99.90;;;;;;5071875;28;21024;-64
2022/07/07 01:38:49;;;;;;;3.40;3.00;;;15.20;99.90;;;;;;5071845;28;20442;-65
2022/07/07 01:41:17;;;;;;;5.20;3.23;;;15.10;99.90;;;;;;5071726;28;20439;-64
2022/07/07 01:43:44;;;;;;;5.07;3.23;;;15.10;99.90;;;;;;5072052;28;20888;-65
2022/07/07 01:46:10;;;;;;;4.03;3.10;;;15.20;99.90;;;;;;5071906;28;20469;-65
2022/07/07 01:48:37;;;;;;;4.63;3.20;;;15.20;99.90;;;;;;5071910;28;20454;-65
2022/07/07 01:51:04;;;;;;;4.90;3.27;;;15.20;99.90;;;;;;5071544;28;20457;-64
2022/07/07 01:53:31;;;;;;;5.23;3.40;;;15.20;99.90;;;;;;5072061;28;20463;-64
2022/07/07 01:56:03;;;;;;;7.07;3.90;;;15.30;99.90;;;;;;5071895;28;20435;-65
2022/07/07 01:58:32;;;;;;;4.63;3.67;;;15.30;99.90;;;;;;5071708;28;20945;-65
2022/07/07 02:00:59;;;;;;;5.67;3.57;;;15.30;99.90;;;;;;5071466;28;20458;-64
2022/07/07 02:03:26;;;;;;;5.50;3.57;;;15.30;99.90;;;;;;5071440;28;21007;-65
2022/07/07 02:05:53;;;;;;;4.13;3.40;;;15.20;99.90;;;;;;5071843;28;20451;-65
2022/07/07 02:08:20;;;;;;;5.80;4.70;;;15.20;99.90;;;;;;5071782;28;20466;-65
2022/07/07 02:13:33;;;;;;;5.90;4.43;;;15.20;99.90;;;;;;5071430;28;20521;-65
2022/07/07 02:15:59;;;;;;;11.27;4.43;;;15.20;99.90;;;;;;5071241;28;20447;-64
2022/07/07 02:18:27;;;;;;;5.60;3.70;;;15.20;99.90;;;;;;5071549;28;20451;-65
2022/07/07 02:20:53;;;;;;;7.07;4.23;;;15.20;99.90;;;;;;5070935;28;20447;-67
2022/07/07 02:23:20;;;;;;;6.00;4.10;;;15.20;99.90;;;;;;5071225;28;20467;-67
2022/07/07 02:25:47;;;;;;;4.93;3.83;;;15.20;99.90;;;;;;5071210;28;20827;-66
2022/07/07 02:28:14;;;;;;;5.40;4.20;;;15.20;99.90;;;;;;5071093;28;20445;-67
2022/07/07 02:30:42;;;;;;;4.60;3.70;;;15.20;99.90;;;;;;5070662;28;20443;-67
2022/07/07 02:33:09;;;;;;;7.33;4.20;;;15.20;99.90;;;;;;5071163;28;20541;-67
2022/07/07 02:35:37;;;;;;;4.50;3.67;;;15.10;99.90;;;;;;5071002;28;20827;-64
2022/07/07 02:38:03;;;;;;;5.17;3.80;;;15.10;99.90;;;;;;5070831;28;20478;-64
2022/07/07 02:40:30;;;;;;;4.10;3.70;;;15.10;99.90;;;;;;5070517;28;20447;-67
2022/07/07 02:42:57;;;;;;;3.80;3.23;;;15.00;99.90;;;;;;5070716;28;21006;-66
2022/07/07 02:45:24;;;;;;;4.17;3.00;;;14.90;99.90;;;;;;5070854;28;20459;-67
2022/07/07 02:47:52;;;;;;;4.30;3.50;;;14.90;99.90;;;;;;5071001;28;20442;-67
2022/07/07 02:50:19;;;;;;;11.60;4.10;;;15.00;99.90;;;;;;5070296;28;20450;-67
2022/07/07 02:52:45;;;;;;;5.03;3.37;;;15.00;99.90;;;;;;5070525;28;20455;-67
2022/07/07 02:55:12;;;;;;;4.23;3.80;;;14.90;99.90;;;;;;5070475;28;20458;-67
2022/07/07 02:57:39;;;;;;;4.10;3.60;;;15.00;99.90;;;;;;5070733;28;20478;-66
2022/07/07 03:00:07;;;;;;;7.00;4.13;;;15.00;99.90;;;;;;5070270;28;20451;-67
2022/07/07 03:02:34;;;;;;;4.23;3.70;;;15.00;99.90;;;;;;5070537;28;20470;-66
2022/07/07 03:05:02;;;;;;;5.50;4.77;;;15.00;99.90;;;;;;5070487;28;20825;-66
2022/07/07 03:07:29;;;;;;;5.47;4.10;;;15.10;99.90;;;;;;5070386;28;20969;-66
2022/07/07 03:09:58;;;;;;;5.93;3.90;;;15.10;99.90;;;;;;5070034;28;20453;-67
2022/07/07 03:12:24;;;;;;;7.00;4.57;;;15.10;99.90;;;;;;5070147;28;20463;-65
2022/07/07 03:14:51;;;;;;;6.43;4.60;;;15.00;99.90;;;;;;5070356;28;20447;-66
2022/07/07 03:17:18;;;;;;;5.60;3.90;;;15.00;99.90;;;;;;5070229;28;20475;-66
2022/07/07 03:19:44;;;;;;;6.77;3.83;;;14.90;99.90;;;;;;5069969;28;20473;-66
2022/07/07 03:22:13;;;;;;;4.93;3.40;;;14.80;99.90;;;;;;5070015;28;20451;-66
2022/07/07 03:24:39;;;;;;;6.27;4.37;;;14.80;99.90;;;;;;5070128;28;20455;-66
2022/07/07 03:27:08;;;;;;;6.10;4.40;;;14.90;99.90;;;;;;5070270;28;20954;-67
2022/07/07 03:29:35;;;;;;;5.20;4.40;;;15.10;99.90;;;;;;5070157;28;20481;-67
2022/07/07 03:32:02;;;;;;;5.00;4.43;;;15.20;99.90;;;;;;5069842;28;20537;-66
2022/07/07 03:34:29;;;;;;;5.87;4.00;;;15.30;99.90;;;;;;5070011;28;20949;-66
2022/07/07 03:36:56;;;;;;;5.40;4.40;;;15.30;99.90;;;;;;5069807;28;20482;-66
2022/07/07 03:39:24;;;;;;;5.10;4.10;;;15.40;99.90;;;;;;5070114;28;20465;-66
2022/07/07 03:41:51;;;;;;;5.70;4.80;;;15.30;99.90;;;;;;5069630;28;20439;-65
2022/07/07 03:44:18;;;;;;;6.37;3.90;;;15.40;99.90;;;;;;5070005;28;20475;-65
2022/07/07 03:46:45;;;;;;;6.97;4.17;;;15.40;99.90;;;;;;5069980;28;20443;-67
2022/07/07 03:49:12;;;;;;;5.50;4.20;;;15.50;99.90;;;;;;5069981;28;20443;-66
2022/07/07 03:51:39;;;;;;;7.77;3.90;;;15.60;99.90;;;;;;5069519;28;20985;-66
2022/07/07 03:54:05;;;;;;;12.63;4.63;;;15.70;99.90;;;;;;5069867;28;20477;-66
2022/07/07 03:56:34;;;;;;;7.70;3.63;;;15.70;99.90;;;;;;5070171;28;20451;-66
2022/07/07 03:59:00;;;;;;;4.20;3.80;;;15.80;99.90;;;;;;5070137;28;20822;-66
2022/07/07 04:01:27;;;;;;;4.57;3.87;;;15.90;99.90;;;;;;5069617;28;20447;-66
2022/07/07 04:03:54;;;;;;;5.90;3.70;;;16.00;99.90;;;;;;5070347;28;20538;-66
2022/07/07 04:06:21;;;;;;;5.27;3.43;;;16.10;99.90;;;;;;5069799;28;20469;-66
2022/07/07 04:08:47;;;;;;;6.60;3.90;;;16.10;99.90;;;;;;5070237;28;20816;-66
2022/07/07 04:11:14;;;;;;;6.50;3.67;;;16.20;99.90;;;;;;5069554;28;20451;-66
2022/07/07 04:13:43;;;;;;;6.67;3.50;;;16.20;99.90;;;;;;5070072;28;20470;-66
2022/07/07 04:16:09;;;;;;;4.00;3.20;;;16.30;99.90;;;;;;5069905;28;20512;-66
2022/07/07 04:18:36;;;;;;;4.23;2.97;;;16.30;99.90;;;;;;5069475;28;20478;-65
2022/07/07 04:21:03;;;;;;;4.73;3.17;;;16.30;99.90;;;;;;5069618;28;20443;-65
2022/07/07 04:23:30;;;;;;;6.00;2.90;;;16.40;99.90;;;;;;5069414;28;21054;-65
2022/07/07 04:25:57;;;;;;;5.30;2.93;;;16.40;99.90;;;;;;5069621;28;20813;-65
2022/07/07 04:28:23;;;;;;;4.83;2.90;;;16.40;99.90;;;;;;5069516;28;20894;-65
2022/07/07 04:30:52;;;;;;;6.17;2.97;;;16.40;99.90;;;;;;5069165;28;20451;-65
2022/07/07 04:33:19;;;;;;;4.90;3.33;;;16.40;99.90;;;;;;5069142;28;20463;-65
2022/07/07 04:35:46;;;;;;;5.40;2.70;;;16.40;99.90;;;;;;5069439;28;20936;-64
2022/07/07 04:38:13;;;;;;;4.90;2.40;;;16.50;99.90;;;;;;5069016;28;20861;-64
2022/07/07 04:40:40;;;;;;;4.17;2.67;;;16.60;99.90;;;;;;5069091;28;20519;-66
2022/07/07 04:43:07;;;;;;;4.00;3.20;;;16.70;99.90;;;;;;5068649;28;20467;-64
2022/07/07 04:45:34;;;;;;;5.80;2.73;;;16.80;99.90;;;;;;5069308;28;20447;-64
2022/07/07 04:48:02;;;;;;;4.03;2.50;;;16.90;99.90;;;;;;5069079;28;20439;-64
2022/07/07 04:50:30;;;;;;;4.50;2.43;;;17.00;99.90;;;;;;5068906;28;20482;-64
2022/07/07 04:52:57;;;;;;;4.10;2.60;;;17.10;99.90;;;;;;5065936;28;20467;-66
2022/07/07 04:55:24;;;;;;;3.70;2.93;;;17.10;99.90;;;;;;5054310;28;20969;-65
2022/07/07 04:57:50;;;;;;;3.33;1.80;;;17.00;99.90;;;;;;5049009;28;20482;-66
2022/07/07 05:00:18;;;;;;;3.07;2.00;;;16.90;99.90;;;;;;5048834;28;20451;-64
2022/07/07 05:02:44;;;;;;;4.13;2.50;;;16.70;99.90;;;;;;5049027;28;20478;-65
2022/07/07 05:05:13;;;;;;;4.13;2.30;;;16.50;99.90;;;;;;5057814;28;20827;-64
2022/07/07 05:07:39;;;;;;;2.70;1.93;;;16.40;99.90;;;;;;5060111;28;20451;-65
2022/07/07 05:10:07;;;;;;;3.70;2.23;;;16.40;99.90;;;;;;5061178;28;20458;-64
2022/07/07 05:12:33;;;;;;;5.37;2.00;;;16.40;99.90;;;;;;5064949;28;20466;-64
2022/07/07 05:15:00;;;;;;;5.20;2.23;;;16.30;99.90;;;;;;5059470;28;20450;-64
2022/07/07 05:17:27;;;;;;;3.63;1.90;;;16.20;99.90;;;;;;5064779;28;20474;-64
2022/07/07 05:19:54;;;;;;;3.80;2.40;;;16.20;99.90;;;;;;5066065;28;20436;-64
2022/07/07 05:22:22;;;;;;;4.03;1.97;;;16.20;99.90;;;;;;5071990;28;20447;-64
2022/07/07 05:24:49;;;;;;;3.50;2.27;;;16.20;99.90;;;;;;5071750;28;20443;-64
2022/07/07 05:27:16;;;;;;;4.27;2.10;;;16.20;99.90;;;;;;5072388;28;20443;-64
2022/07/07 05:29:42;;;;;;;3.33;2.03;;;16.30;99.90;;;;;;5071014;28;20474;-65
2022/07/07 05:32:09;;;;;;;2.63;2.20;;;16.30;99.90;;;;;;5072419;28;20872;-65
2022/07/07 05:34:36;;;;;;;4.50;2.37;;;16.30;99.90;;;;;;5072137;28;20443;-64
2022/07/07 05:37:03;;;;;;;3.40;2.40;;;16.40;99.90;;;;;;5071979;28;20461;-65
2022/07/07 05:39:32;;;;;;;5.47;2.50;;;16.50;99.90;;;;;;5072162;28;20447;-64
2022/07/07 05:41:58;;;;;;;3.63;2.60;;;16.50;99.90;;;;;;5071933;28;20447;-64
2022/07/07 05:44:25;;;;;;;3.37;2.73;;;16.60;99.90;;;;;;5071968;28;20562;-64
2022/07/07 05:46:52;;;;;;;3.97;2.03;;;16.70;99.90;;;;;;5071964;28;20450;-64
2022/07/07 05:49:19;;;;;;;3.70;2.20;;;16.70;99.90;;;;;;5071807;28;20451;-64
2022/07/07 05:51:46;;;;;;;2.70;2.20;;;16.80;99.90;;;;;;5071642;28;20455;-64
2022/07/07 05:54:13;;;;;;;3.20;2.60;;;17.00;99.90;;;;;;5071808;28;20846;-64
2022/07/07 05:56:41;;;;;;;4.50;1.83;;;17.10;99.90;;;;;;5071819;28;21136;-65
2022/07/07 05:59:08;;;;;;;3.33;2.10;;;17.30;99.90;;;;;;5071754;28;20569;-64
2022/07/07 06:01:35;;;;;;;5.03;2.77;;;17.50;99.90;;;;;;5071231;28;20450;-65
2022/07/07 06:04:01;;;;;;;4.57;1.90;;;17.60;99.90;;;;;;5071444;28;20512;-65
2022/07/07 06:06:28;;;;;;;4.50;2.17;;;17.90;99.90;;;;;;5071745;28;20449;-64
2022/07/07 06:08:55;;;;;;;3.90;2.10;;;18.30;99.90;;;;;;5071645;28;20462;-65
2022/07/07 06:11:22;;;;;;;3.57;2.10;;;18.60;99.90;;;;;;5071555;28;20504;-65
2022/07/07 06:13:50;;;;;;;2.77;1.87;;;18.80;99.90;;;;;;5071475;28;21011;-65
2022/07/07 06:16:17;;;;;;;2.93;2.10;;;18.90;99.90;;;;;;5071327;28;21104;-65
2022/07/07 06:18:44;;;;;;;6.30;2.20;;;19.00;99.90;;;;;;5071220;28;20474;-65
2022/07/07 06:21:11;;;;;;;6.07;2.30;;;19.10;99.90;;;;;;5071038;28;20526;-65
2022/07/07 06:23:38;;;;;;;3.73;1.97;;;19.10;99.90;;;;;;5071144;28;20817;-65
2022/07/07 06:26:05;;;;;;;4.13;2.23;;;19.20;99.90;;;;;;5070940;28;20443;-64
2022/07/07 06:28:31;;;;;;;6.23;1.90;;;19.30;99.90;;;;;;5071219;28;20820;-64
2022/07/07 06:30:59;;;;;;;3.70;1.60;;;19.50;99.90;;;;;;5070759;28;20450;-65
2022/07/07 06:33:27;;;;;;;3.20;1.70;;;19.80;99.90;;;;;;5071155;28;20546;-65
2022/07/07 06:35:54;;;;;;;3.33;1.90;;;20.10;99.90;;;;;;5071154;28;20513;-65
2022/07/07 06:38:20;;;;;;;6.67;2.00;;;20.30;99.30;;;;;;5070883;28;20487;-64
2022/07/07 06:40:47;;;;;;;3.23;2.00;;;20.50;98.70;;;;;;5070767;28;20521;-65
2022/07/07 06:43:14;;;;;;;3.03;1.90;;;20.50;99.10;;;;;;5070878;28;20463;-65
2022/07/07 06:45:41;;;;;;;7.87;2.33;;;20.60;98.80;;;;;;5070846;28;20447;-65
2022/07/07 06:48:09;;;;;;;3.03;1.80;;;20.60;98.10;;;;;;5071220;28;20440;-65
2022/07/07 06:50:35;;;;;;;7.10;2.13;;;20.60;99.10;;;;;;5070671;28;21177;-64
2022/07/07 06:53:02;;;;;;;12.03;2.87;;;20.70;98.50;;;;;;5070928;28;20463;-65
2022/07/07 06:55:29;;;;;;;2.60;1.90;;;20.80;99.20;;;;;;5071119;28;20934;-65
2022/07/07 06:57:56;;;;;;;4.30;2.27;;;20.90;98.60;;;;;;5070896;28;20887;-65
2022/07/07 07:00:23;;;;;;;5.57;2.30;;;21.00;98.00;;;;;;5070475;28;20455;-66
2022/07/07 07:02:50;;;;;;;8.53;2.23;;;21.00;97.80;;;;;;5071012;28;20550;-65
2022/07/07 07:05:18;;;;;;;4.07;2.30;;;21.00;98.10;;;;;;5070719;28;20451;-65
2022/07/07 07:07:45;;;;;;;3.70;2.30;;;20.90;97.70;;;;;;5070929;28;20447;-65
2022/07/07 07:10:12;;;;;;;5.00;2.40;;;21.00;98.30;;;;;;5070370;28;20447;-64
2022/07/07 07:12:39;;;;;;;5.30;2.23;;;21.00;98.80;;;;;;5070242;28;20469;-65
2022/07/07 07:15:07;;;;;;;3.63;2.20;;;20.90;97.90;;;;;;5060364;28;20455;-65
2022/07/07 07:17:34;;;;;;;4.73;2.30;;;21.00;98.60;;;;;;5067287;28;20458;-65
2022/07/07 07:20:00;;;;;;;5.47;2.10;;;20.90;99.00;;;;;;5059997;28;20453;-65
2022/07/07 07:22:29;;;;;;;4.40;2.30;;;20.90;98.90;;;;;;5062758;28;20467;-65
2022/07/07 07:24:56;;;;;;;3.40;2.23;;;20.90;98.80;;;;;;5054072;28;20452;-64
2022/07/07 07:27:22;;;;;;;4.07;2.00;;;20.90;98.50;;;;;;5054908;28;20466;-63
2022/07/07 07:29:49;;;;;;;4.10;2.37;;;21.10;98.40;;;;;;5054555;28;21320;-64
2022/07/07 07:32:16;;;;;;;4.07;2.00;;;21.40;97.80;;;;;;5062201;28;20454;-63
2022/07/07 07:34:43;;;;;;;4.70;2.47;;;21.40;97.50;;;;;;5065781;28;20447;-64
2022/07/07 07:37:09;;;;;;;4.10;2.37;;;21.40;98.00;;;;;;5062473;28;20478;-64
2022/07/07 07:39:38;;;;;;;7.53;2.23;;;21.40;97.80;;;;;;5054658;28;20479;-64
2022/07/07 07:42:05;;;;;;;8.70;4.33;;;21.50;99.30;;;;;;5057835;28;20466;-64
2022/07/07 07:47:15;;;;;;;3.03;2.03;;;21.30;98.70;;;;;;5042479;28;21576;-64
2022/07/07 07:49:42;;;;;;;4.53;2.97;;;21.00;98.60;;;;;;5057366;28;20443;-65
2022/07/07 07:52:09;;;;;;;5.33;2.50;;;20.80;98.50;;;;;;5057004;28;20466;-64
2022/07/07 07:54:36;;;;;;;3.60;2.70;;;20.50;98.80;;;;;;5055302;28;20456;-64
2022/07/07 07:57:04;;;;;;;7.17;2.53;;;20.40;99.10;;;;;;5056716;28;21021;-65
2022/07/07 07:59:31;;;;;;;4.30;1.90;;;20.30;99.20;;;;;;5056835;28;20498;-64
2022/07/07 08:01:58;;;;;;;3.90;2.40;;;20.30;99.50;;;;;;5055329;28;20445;-64
2022/07/07 08:04:25;;;;;;;4.17;2.07;;;20.20;99.20;;;;;;5056520;28;20229;-62
2022/07/07 08:06:52;;;;;;;3.70;2.40;;;20.20;99.50;;;;;;5064180;28;20454;-63
2022/07/07 08:09:21;;;;;;;5.40;3.30;;;20.00;99.70;;;;;;5054790;28;20438;-64
2022/07/07 08:11:48;;;;;;;8.37;2.50;;;20.10;99.90;;;;;;5060214;28;20528;-64
2022/07/07 08:14:16;;;;;;;5.53;2.30;;;20.20;99.80;;;;;;5058781;28;20478;-64
2022/07/07 08:16:43;;;;;;;4.20;2.33;;;20.30;99.80;;;;;;5058673;28;20440;-63
2022/07/07 08:19:10;;;;;;;4.27;2.63;;;20.40;99.30;;;;;;5048675;28;20483;-64
2022/07/07 08:21:37;;;;;;;5.10;2.17;;;20.50;99.30;;;;;;5049359;28;20452;-64
2022/07/07 08:24:05;;;;;;;3.60;2.33;;;20.40;99.90;;;;;;5056305;28;20476;-64
2022/07/07 08:26:31;;;;;;;4.00;2.20;;;20.20;99.90;;;;;;5056314;28;20459;-64
2022/07/07 08:28:58;;;;;;;5.80;2.80;;;20.10;99.90;;;;;;5056121;28;20499;-64
2022/07/07 08:31:26;;;;;;;5.80;3.43;;;20.20;99.90;;;;;;5058578;28;20456;-66
2022/07/07 08:33:53;;;;;;;4.10;2.70;;;20.30;99.90;;;;;;5057260;28;21020;-64
2022/07/07 08:36:20;;;;;;;4.60;3.20;;;20.40;99.90;;;;;;5065972;28;20447;-64
2022/07/07 08:38:47;;;;;;;6.03;3.27;;;20.30;99.90;;;;;;5057957;28;20482;-64
2022/07/07 08:41:15;;;;;;;4.47;3.50;;;20.40;99.90;;;;;;5069083;28;20458;-65
2022/07/07 08:43:42;;;;;;;6.13;3.80;;;20.30;99.90;;;;;;5066399;28;20473;-64
2022/07/07 08:46:09;;;;;;;5.37;3.83;;;20.30;99.90;;;;;;5063613;28;20530;-64
2022/07/07 08:48:37;;;;;;;6.93;3.63;;;20.30;99.90;;;;;;5060750;28;20795;-64
2022/07/07 08:51:04;;;;;;;6.87;4.10;;;20.30;99.90;;;;;;5064157;28;20444;-64
2022/07/07 08:53:34;;;;;;;3.83;3.43;;;20.30;99.90;;;;;;5067718;28;20455;-64
2022/07/07 08:56:05;;;;;;;8.27;3.83;;;20.30;99.90;;;;;;5073037;28;20857;-65
2022/07/07 08:58:35;;;;;;;6.67;3.73;;;20.50;99.90;;;;;;5072958;28;20475;-63
2022/07/07 09:01:02;;;;;;;4.90;4.40;;;20.80;99.90;;;;;;5072578;28;20450;-64
2022/07/07 09:03:29;;;;;;;4.67;3.93;;;21.00;99.90;;;;;;5073348;28;20471;-66
2022/07/07 09:05:58;;;;;;;6.73;4.70;;;21.20;99.90;;;;;;5073342;28;20442;-66
2022/07/07 09:08:26;;;;;;;5.20;4.17;;;21.40;99.90;;;;;;5072893;28;20826;-66
2022/07/07 09:10:54;;;;;;;6.67;2.73;;;21.40;99.90;;;;;;5072378;28;20451;-65
2022/07/07 09:13:23;;;;;;;5.83;2.70;;;21.30;99.90;;;;;;5072537;28;20473;-66
2022/07/07 09:15:51;;;;;;;5.73;3.23;;;21.00;99.90;;;;;;5067113;28;20474;-66
2022/07/07 09:18:32;;;;;;;5.23;2.53;;;20.70;99.90;;;;;;5061935;28;20455;-66
2022/07/07 09:21:01;;;;;;;3.40;2.40;;;20.50;99.90;;;;;;5060004;28;20451;-66
2022/07/07 09:23:28;;;;;;;7.43;2.90;;;20.40;99.90;;;;;;5061702;28;20502;-66
2022/07/07 09:25:55;;;;;;;8.30;3.40;;;20.40;99.90;;;;;;5058978;28;20946;-66
2022/07/07 09:28:22;;;;;;;5.73;3.87;;;20.40;99.90;;;;;;5070799;28;20462;-66
2022/07/07 09:30:49;;;;;;;6.97;3.63;;;20.40;99.90;;;;;;5064447;28;20448;-66
2022/07/07 09:33:20;;;;;;;5.33;3.50;;;20.50;99.90;;;;;;5061600;28;20540;-64
2022/07/07 09:38:34;;;;;;;4.43;3.00;;;20.40;99.90;;;;;;5064223;28;20434;-66
2022/07/07 09:41:03;;;;;;;4.87;3.37;;;20.30;99.90;;;;;;5068667;28;20449;-66
2022/07/07 09:43:32;;;;;;;10.13;3.77;;;20.20;99.90;;;;;;5067120;28;20525;-66
2022/07/07 09:46:15;;;;;;;9.53;3.40;;;20.10;99.90;;;;;;5068079;28;20451;-66
2022/07/07 09:48:45;;;;;;;5.30;2.60;;;20.00;99.90;;;;;;5066180;28;21348;-66
2022/07/07 09:51:17;;;;;;;4.60;2.60;;;19.90;99.90;;;;;;5062115;28;20951;-66
2022/07/07 09:53:56;;;;;;;3.53;2.20;;;19.80;99.90;;;;;;5062171;28;20818;-66
2022/07/07 09:56:24;;;;;;;5.30;2.70;;;19.70;99.90;;;;;;5063771;28;20442;-66
2022/07/07 09:58:52;;;;;;;9.50;4.73;;;19.70;99.90;;;;;;5059519;28;20481;-66
2022/07/07 10:01:21;;;;;;;4.10;2.30;;;19.90;99.90;;;;;;5065933;28;20531;-66
2022/07/07 10:03:48;;;;;;;3.40;2.43;;;20.00;99.90;;;;;;5068679;28;20573;-63
2022/07/07 10:06:15;;;;;;;3.17;2.40;;;20.20;99.90;;;;;;5070362;28;20447;-63
2022/07/07 10:08:45;;;;;;;3.10;2.43;;;20.40;99.90;;;;;;5069527;28;20458;-65
2022/07/07 10:11:15;;;;;;;3.13;2.27;;;20.50;99.90;;;;;;5062147;28;20455;-64
2022/07/07 10:13:44;;;;;;;3.97;2.23;;;20.70;99.90;;;;;;5065539;28;20546;-64
2022/07/07 10:16:11;;;;;;;3.07;2.37;;;21.00;99.90;;;;;;5061282;28;20447;-63
2022/07/07 10:18:39;;;;;;;3.53;2.70;;;21.30;99.90;;;;;;5064543;28;20960;-64
2022/07/07 10:21:06;;;;;;;3.00;2.50;;;21.80;99.90;;;;;;5066976;28;20443;-65
2022/07/07 10:23:35;;;;;;;5.03;2.63;;;22.30;99.90;;;;;;5066840;28;20467;-63
2022/07/07 10:26:02;;;;;;;3.40;2.60;;;22.70;99.90;;;;;;5066717;28;20546;-63
2022/07/07 10:28:54;;;;;;;3.20;2.60;;;22.70;99.90;;;;;;5064082;28;20447;-64
2022/07/07 10:31:22;;;;;;;3.47;2.30;;;22.40;99.90;;;;;;5066985;28;20447;-63
2022/07/07 10:33:55;;;;;;;4.20;2.93;;;21.90;99.90;;;;;;5060014;28;20468;-64
2022/07/07 10:36:22;;;;;;;3.10;2.30;;;21.80;99.90;;;;;;5049712;28;20754;-63
2022/07/07 10:38:52;;;;;;;4.27;2.97;;;21.80;99.90;;;;;;5056115;28;20447;-64
2022/07/07 10:41:24;;;;;;;3.73;2.57;;;21.80;99.90;;;;;;5063365;28;20531;-67
2022/07/07 10:44:03;;;;;;;3.03;2.20;;;21.80;99.90;;;;;;5054674;28;20483;-64
2022/07/07 10:46:30;;;;;;;5.07;2.70;;;21.90;99.90;;;;;;5058017;28;20458;-63
2022/07/07 10:49:10;;;;;;;3.90;2.37;;;21.90;99.90;;;;;;5063755;28;20451;-64
2022/07/07 10:51:54;;;;;;;4.77;2.50;;;21.90;99.90;;;;;;5060212;28;20458;-64
2022/07/07 10:54:36;;;;;;;3.70;2.30;;;21.60;99.90;;;;;;5067435;28;20528;-64
2022/07/07 10:57:18;;;;;;;3.80;2.50;;;21.30;99.90;;;;;;5058092;28;20531;-64
2022/07/07 11:00:18;;;;;;;5.43;2.50;;;21.20;99.90;;;;;;5069272;28;21033;-64
2022/07/07 11:02:49;;;;;;;4.50;2.30;;;21.00;99.90;;;;;;5067583;28;20552;-64
2022/07/07 11:05:32;;;;;;;7.73;2.57;;;20.90;99.90;;;;;;5064227;28;20447;-65
2022/07/07 11:08:11;;;;;;;3.83;2.40;;;21.00;99.90;;;;;;5061353;28;20959;-64
2022/07/07 11:10:53;;;;;;;5.40;2.90;;;20.80;99.90;;;;;;5064609;28;20447;-64
2022/07/07 11:13:22;;;;;;;3.77;2.70;;;20.10;99.90;;;;;;5065703;28;20852;-64
2022/07/07 11:15:51;;;;;;;3.67;2.73;;;19.20;99.90;;;;;;5063927;28;20543;-63
2022/07/07 11:18:20;;;;;;;4.83;2.93;;;18.90;99.90;;;;;;5057863;28;20446;-65
2022/07/07 11:20:59;;;;;;;2.83;2.40;;;18.90;99.90;;;;;;5066035;28;21124;-65
2022/07/07 11:23:43;;;;;;;4.53;2.80;;;19.10;99.90;;;;;;5060071;28;20485;-64
2022/07/07 11:26:11;;;;;;;4.40;2.20;;;19.30;99.90;;;;;;5063526;28;20439;-64
2022/07/07 11:28:38;;;;;;;4.80;2.30;;;19.50;99.90;;;;;;5061172;28;20448;-65
2022/07/07 11:31:07;;;;;;;6.83;2.13;;;19.70;99.90;;;;;;5066983;28;20562;-65
2022/07/07 11:33:36;;;;;;;6.83;3.27;;;19.90;99.90;;;;;;5069835;28;20471;-65
2022/07/07 11:36:11;;;;;;;9.63;3.33;;;20.00;99.90;;;;;;5068952;28;20479;-63
2022/07/07 11:38:37;;;;;;;6.00;3.27;;;20.10;99.90;;;;;;5059428;28;20439;-65
2022/07/07 11:41:05;;;;;;;4.50;3.03;;;20.20;99.90;;;;;;5059799;28;21010;-64
2022/07/07 11:43:33;;;;;;;4.90;3.30;;;20.10;99.90;;;;;;5063893;28;20559;-65
2022/07/07 11:46:00;;;;;;;6.10;3.50;;;20.00;99.90;;;;;;5060845;28;20520;-64
2022/07/07 11:48:35;;;;;;;6.83;3.07;;;20.10;99.90;;;;;;5061168;28;20469;-64
2022/07/07 11:51:02;;;;;;;8.93;2.90;;;20.40;99.90;;;;;;5063359;28;20443;-64
2022/07/07 11:53:29;;;;;;;6.13;3.00;;;20.50;99.90;;;;;;5063336;28;20900;-64
2022/07/07 11:55:56;;;;;;;5.43;3.27;;;20.60;99.90;;;;;;5069414;28;20482;-64
2022/07/07 11:58:23;;;;;;;4.60;2.67;;;20.60;99.90;;;;;;5067341;28;20486;-64
2022/07/07 12:00:54;;;;;;;3.43;2.93;;;20.60;99.90;;;;;;5062056;28;20489;-64
2022/07/07 12:03:29;;;;;;;6.53;2.80;;;20.50;99.90;;;;;;5062702;28;20475;-63
2022/07/07 12:05:58;;;;;;;6.63;3.03;;;20.50;99.90;;;;;;5062622;28;20455;-65
2022/07/07 12:08:33;;;;;;;5.23;3.20;;;20.50;99.90;;;;;;5058562;28;20447;-64
2022/07/07 12:11:00;;;;;;;3.93;2.73;;;20.60;99.90;;;;;;5060755;28;20442;-64
2022/07/07 12:13:27;;;;;;;3.37;2.77;;;20.80;99.90;;;;;;5060908;28;20466;-65
2022/07/07 12:15:54;;;;;;;4.80;3.00;;;20.90;99.90;;;;;;5064943;28;20530;-64
2022/07/07 12:18:24;;;;;;;3.50;2.60;;;21.00;99.90;;;;;;5051414;28;20452;-64
2022/07/07 12:20:59;;;;;;;4.20;2.93;;;21.20;99.90;;;;;;5060790;28;20857;-64
2022/07/07 12:23:25;;;;;;;5.53;3.10;;;21.40;99.90;;;;;;5063094;28;20481;-64
2022/07/07 12:25:52;;;;;;;4.50;3.80;;;21.70;99.90;;;;;;5066236;28;20462;-64
2022/07/07 12:28:19;;;;;;;5.43;3.07;;;21.70;99.90;;;;;;5072093;28;20509;-64
2022/07/07 12:30:55;;;;;;;4.10;2.77;;;21.70;99.90;;;;;;5071934;28;20827;-64
2022/07/07 12:33:26;;;;;;;10.70;3.40;;;21.60;99.90;;;;;;5062808;28;20470;-65
2022/07/07 12:35:58;;;;;;;3.40;2.80;;;21.60;99.90;;;;;;5052004;28;20451;-64
2022/07/07 12:38:38;;;;;;;5.07;3.03;;;21.60;99.90;;;;;;5052091;28;20697;-64
2022/07/07 12:41:05;;;;;;;6.17;3.17;;;21.80;99.90;;;;;;5064329;28;20492;-64
2022/07/07 12:43:34;;;;;;;6.07;3.60;;;22.00;99.90;;;;;;5070482;28;20467;-65
2022/07/07 12:46:11;;;;;;;4.13;3.20;;;22.10;99.90;;;;;;5069231;28;20450;-64
2022/07/07 12:48:47;;;;;;;3.10;2.60;;;21.90;99.90;;;;;;5072091;28;20481;-64
2022/07/07 12:51:13;;;;;;;5.20;3.03;;;21.70;99.90;;;;;;5071307;28;20454;-65
2022/07/07 12:53:43;;;;;;;4.73;3.27;;;21.40;99.90;;;;;;5069691;28;20473;-64
2022/07/07 12:56:12;;;;;;;4.03;3.00;;;21.10;99.90;;;;;;5067817;28;20450;-64
2022/07/07 12:58:43;;;;;;;6.63;3.50;;;20.80;99.90;;;;;;5064546;28;20447;-64